Southern Shores, North Carolina
Current Conditions -  °F | °C
As of 11:15 AM on Sunday 25 Jan 2015 (Local Time) from KFFA Reporting Station
Clear Clear  
Wind Chill: 43°   Ceiling: Unl
Heat Index: 45°   Visibility: 10mi
Dew Point: 33°   Wind: 5mph
Humidity: 62%   Direction: 260°W
Pressure: 29.96"   Gusts: NA
Location:  36.1034°N, 75.7289°W
Report Text: KFFA 251615Z AUTO 26004KT 10SM CLR 07/00 A2996 RMK AO2 T00730004
Loading
Personal Weather Stations






























Interactive Weather Map New forecast layout! Learn more

10-Day Weather Forecast

Advertisements
Track Severe Weather on mobile